PWSweather.com
Personal Weather Stations
Station Observations
MARRWS
Allansford VictoriaAU 3277

Allansford VictoriaAU 3277

Lat: -38.4003683814149, Lon: 142.569826841354

Elevation: 36

Station Type: Fine Offset X7062

http://home.vicnet.net.au/~marr/Weather/

Latest ConditionsUpdated 11:30:00 PM GMT+10:10 Friday, Jan 19, 2018
Currently Today's Max Today's Min Today's Average
Temperature 66.4°F19.1°C 89.2°F31.8°C 58.6°F14.8°C 72.6°F22.6°C
Dew Point 64.0°F17.8°C 67.0°F19.4°C 45.2°F7.3°C 58.9°F14.9°C
Winds 3.4 mph NE5.5 kmh NE 9.1 mph NE14.6 kmh NE - 3.5 mph 5.6 kmh
Wind Gusts 9.2 mph14.8 kmh 16.8 mph27.0 kmh - -
Humidity 92% 93% 30% 65%
Pressure 29.86 in1011.2 mb 29.87 in1011.5 mb 29.71 in1006.1 mb -
Hour Temp Dew Point Humidity Winds Wind Gusts Pressure Precip Precip Rate Daily Precip Total
11:30 PM 66.4°F19.1°C 64.0°F17.8°C 92% 3.4 mph NE5.5 kmh NE 9.2 mph14.8 kmh 29.86 in1011.2 mb 0.00 in0.0 mm 0.00 in0.0 mm 0.00 in0.0 mm
11:20 PM 66.4°F19.1°C 64.0°F17.8°C 92% 3.9 mph ENE6.3 kmh ENE 9.8 mph15.8 kmh 29.87 in1011.5 mb 0.00 in0.0 mm 0.00 in0.0 mm 0.00 in0.0 mm
11:10 PM 66.2°F19.0°C 63.8°F17.7°C 92% 3.7 mph NE6.0 kmh NE 7.6 mph12.2 kmh 29.86 in1011.2 mb 0.00 in0.0 mm 0.00 in0.0 mm 0.00 in0.0 mm
11:00 PM 66.0°F18.9°C 64.0°F17.8°C 93% 3.2 mph NNE5.1 kmh NNE 7.6 mph12.2 kmh 29.86 in1011.2 mb 0.00 in0.0 mm 0.00 in0.0 mm 0.00 in0.0 mm
10:50 PM 65.8°F18.8°C 63.8°F17.7°C 93% 4.0 mph NE6.4 kmh NE 9.2 mph14.8 kmh 29.85 in1010.8 mb 0.00 in0.0 mm 0.00 in0.0 mm 0.00 in0.0 mm
10:40 PM 65.8°F18.8°C 63.8°F17.7°C 93% 4.3 mph NE6.9 kmh NE 9.8 mph15.8 kmh 29.84 in1010.5 mb 0.00 in0.0 mm 0.00 in0.0 mm 0.00 in0.0 mm
10:30 PM 66.2°F19.0°C 63.8°F17.7°C 92% 3.8 mph E6.1 kmh E 9.2 mph14.8 kmh 29.85 in1010.8 mb 0.00 in0.0 mm 0.00 in0.0 mm 0.00 in0.0 mm
10:20 PM 66.0°F18.9°C 64.0°F17.8°C 93% 4.3 mph E6.9 kmh E 15.2 mph24.5 kmh 29.85 in1010.8 mb 0.00 in0.0 mm 0.00 in0.0 mm 0.00 in0.0 mm
10:10 PM 66.0°F18.9°C 64.0°F17.8°C 93% 5.5 mph E8.9 kmh E 11.4 mph18.3 kmh 29.85 in1010.8 mb 0.00 in0.0 mm 0.00 in0.0 mm 0.00 in0.0 mm
10:00 PM 66.4°F19.1°C 64.0°F17.8°C 92% 4.4 mph NE7.1 kmh NE 9.8 mph15.8 kmh 29.85 in1010.8 mb 0.00 in0.0 mm 0.00 in0.0 mm 0.00 in0.0 mm
09:50 PM 66.4°F19.1°C 64.0°F17.8°C 92% 5.3 mph NE8.5 kmh NE 12.1 mph19.5 kmh 29.86 in1011.2 mb 0.00 in0.0 mm 0.00 in0.0 mm 0.00 in0.0 mm
09:40 PM 66.6°F19.2°C 64.2°F17.9°C 92% 5.2 mph NE8.4 kmh NE 11.4 mph18.3 kmh 29.86 in1011.2 mb 0.00 in0.0 mm 0.00 in0.0 mm 0.00 in0.0 mm
09:30 PM 66.6°F19.2°C 64.2°F17.9°C 92% 5.4 mph ENE8.7 kmh ENE 12.1 mph19.5 kmh 29.86 in1011.2 mb 0.00 in0.0 mm 0.00 in0.0 mm 0.00 in0.0 mm
09:20 PM 66.6°F19.2°C 64.2°F17.9°C 92% 4.2 mph E6.8 kmh E 10.7 mph17.2 kmh 29.87 in1011.5 mb 0.00 in0.0 mm 0.00 in0.0 mm 0.00 in0.0 mm
09:10 PM 66.6°F19.2°C 64.2°F17.9°C 92% 4.4 mph ENE7.1 kmh ENE 13.0 mph20.9 kmh 29.87 in1011.5 mb 0.00 in0.0 mm 0.00 in0.0 mm 0.00 in0.0 mm
09:00 PM 66.6°F19.2°C 64.2°F17.9°C 92% 4.5 mph E7.2 kmh E 10.7 mph17.2 kmh 29.85 in1010.8 mb 0.00 in0.0 mm 0.00 in0.0 mm 0.00 in0.0 mm
08:50 PM 66.9°F19.4°C 64.5°F18.1°C 92% 5.2 mph NE8.4 kmh NE 10.7 mph17.2 kmh 29.85 in1010.8 mb 0.00 in0.0 mm 0.00 in0.0 mm 0.00 in0.0 mm
08:40 PM 66.7°F19.3°C 64.4°F18.0°C 92% 4.0 mph ENE6.4 kmh ENE 9.8 mph15.8 kmh 29.83 in1010.2 mb 0.00 in0.0 mm 0.00 in0.0 mm 0.00 in0.0 mm
08:30 PM 66.7°F19.3°C 64.4°F18.0°C 92% 5.0 mph ENE8.0 kmh ENE 11.4 mph18.3 kmh 29.83 in1010.2 mb 0.00 in0.0 mm 0.00 in0.0 mm 0.00 in0.0 mm
08:20 PM 66.7°F19.3°C 64.4°F18.0°C 92% 4.8 mph NE7.7 kmh NE 10.7 mph17.2 kmh 29.81 in1009.5 mb 0.00 in0.0 mm 0.00 in0.0 mm 0.00 in0.0 mm
08:10 PM 66.7°F19.3°C 64.4°F18.0°C 92% 4.7 mph NE7.6 kmh NE 9.8 mph15.8 kmh 29.82 in1009.8 mb 0.00 in0.0 mm 0.00 in0.0 mm 0.00 in0.0 mm
08:00 PM 66.7°F19.3°C 64.1°F17.8°C 91% 5.9 mph NE9.5 kmh NE 13.6 mph21.9 kmh 29.82 in1009.8 mb 0.00 in0.0 mm 0.00 in0.0 mm 0.00 in0.0 mm
07:50 PM 66.9°F19.4°C 64.5°F18.1°C 92% 5.1 mph NE8.2 kmh NE 15.2 mph24.5 kmh 29.80 in1009.1 mb 0.00 in0.0 mm 0.00 in0.0 mm 0.00 in0.0 mm
07:40 PM 66.9°F19.4°C 64.5°F18.1°C 92% 5.3 mph NE8.5 kmh NE 11.4 mph18.3 kmh 29.80 in1009.1 mb 0.00 in0.0 mm 0.00 in0.0 mm 0.00 in0.0 mm
07:30 PM 67.1°F19.5°C 64.7°F18.2°C 92% 6.6 mph ENE10.6 kmh ENE 13.6 mph21.9 kmh 29.80 in1009.1 mb 0.00 in0.0 mm 0.00 in0.0 mm 0.00 in0.0 mm
07:20 PM 67.3°F19.6°C 64.6°F18.1°C 91% 6.1 mph E9.8 kmh E 13.6 mph21.9 kmh 29.80 in1009.1 mb 0.00 in0.0 mm 0.00 in0.0 mm 0.00 in0.0 mm
07:10 PM 67.5°F19.7°C 64.8°F18.2°C 91% 6.9 mph ENE11.1 kmh ENE 13.6 mph21.9 kmh 29.80 in1009.1 mb 0.00 in0.0 mm 0.00 in0.0 mm 0.00 in0.0 mm
07:00 PM 67.5°F19.7°C 64.8°F18.2°C 91% 6.7 mph ENE10.8 kmh ENE 13.6 mph21.9 kmh 29.77 in1008.1 mb 0.00 in0.0 mm 0.00 in0.0 mm 0.00 in0.0 mm
06:50 PM 67.6°F19.8°C 64.9°F18.3°C 91% 6.7 mph ENE10.8 kmh ENE 16.8 mph27.0 kmh 29.77 in1008.1 mb 0.00 in0.0 mm 0.00 in0.0 mm 0.00 in0.0 mm
06:40 PM 68.0°F20.0°C 64.3°F17.9°C 88% 7.2 mph NE11.6 kmh NE 13.6 mph21.9 kmh 29.77 in1008.1 mb 0.00 in0.0 mm 0.00 in0.0 mm 0.00 in0.0 mm
06:30 PM 68.4°F20.2°C 64.4°F18.0°C 87% 6.5 mph E10.5 kmh E 13.6 mph21.9 kmh 29.78 in1008.5 mb 0.00 in0.0 mm 0.00 in0.0 mm 0.00 in0.0 mm
06:20 PM 68.7°F20.4°C 64.7°F18.2°C 87% 6.6 mph ENE10.6 kmh ENE 14.5 mph23.3 kmh 29.77 in1008.1 mb 0.00 in0.0 mm 0.00 in0.0 mm 0.00 in0.0 mm
06:10 PM 69.6°F20.9°C 65.6°F18.7°C 87% 6.9 mph ENE11.1 kmh ENE 14.5 mph23.3 kmh 29.78 in1008.5 mb 0.00 in0.0 mm 0.00 in0.0 mm 0.00 in0.0 mm
06:00 PM 70.0°F21.1°C 65.0°F18.3°C 84% 6.6 mph ENE10.6 kmh ENE 13.6 mph21.9 kmh 29.77 in1008.1 mb 0.00 in0.0 mm 0.00 in0.0 mm 0.00 in0.0 mm
05:50 PM 70.2°F21.2°C 65.1°F18.4°C 84% 7.3 mph NE11.7 kmh NE 14.5 mph23.3 kmh 29.77 in1008.1 mb 0.00 in0.0 mm 0.00 in0.0 mm 0.00 in0.0 mm
05:40 PM 70.5°F21.4°C 65.1°F18.4°C 83% 7.5 mph NE12.1 kmh NE 13.0 mph20.9 kmh 29.77 in1008.1 mb 0.00 in0.0 mm 0.00 in0.0 mm 0.00 in0.0 mm
05:30 PM 70.7°F21.5°C 65.0°F18.3°C 82% 7.9 mph NE12.7 kmh NE 14.5 mph23.3 kmh 29.77 in1008.1 mb 0.00 in0.0 mm 0.00 in0.0 mm 0.00 in0.0 mm
05:20 PM 72.1°F22.3°C 64.9°F18.3°C 78% 7.2 mph NE11.6 kmh NE 15.2 mph24.5 kmh 29.77 in1008.1 mb 0.00 in0.0 mm 0.00 in0.0 mm 0.00 in0.0 mm
05:10 PM 73.2°F22.9°C 64.9°F18.3°C 75% 7.4 mph ENE11.9 kmh ENE 13.0 mph20.9 kmh 29.77 in1008.1 mb 0.00 in0.0 mm 0.00 in0.0 mm 0.00 in0.0 mm
05:00 PM 74.5°F23.6°C 66.5°F19.2°C 76% 6.7 mph ENE10.8 kmh ENE 15.2 mph24.5 kmh 29.76 in1007.8 mb 0.00 in0.0 mm 0.00 in0.0 mm 0.00 in0.0 mm
04:50 PM 72.3°F22.4°C 65.5°F18.6°C 79% 8.9 mph NE14.3 kmh NE 15.9 mph25.6 kmh 29.76 in1007.8 mb 0.00 in0.0 mm 0.00 in0.0 mm 0.00 in0.0 mm
04:40 PM 72.1°F22.3°C 64.9°F18.3°C 78% 9.1 mph ENE14.6 kmh ENE 15.9 mph25.6 kmh 29.77 in1008.1 mb 0.00 in0.0 mm 0.00 in0.0 mm 0.00 in0.0 mm
04:30 PM 73.8°F23.2°C 65.8°F18.8°C 76% 7.0 mph ENE11.3 kmh ENE 15.9 mph25.6 kmh 29.78 in1008.5 mb 0.00 in0.0 mm 0.00 in0.0 mm 0.00 in0.0 mm
04:20 PM 75.0°F23.9°C 65.4°F18.6°C 72% 8.0 mph ENE12.9 kmh ENE 15.9 mph25.6 kmh 29.77 in1008.1 mb 0.00 in0.0 mm 0.00 in0.0 mm 0.00 in0.0 mm
04:10 PM 75.0°F23.9°C 65.8°F18.8°C 73% 7.6 mph ENE12.2 kmh ENE 15.9 mph25.6 kmh 29.78 in1008.5 mb 0.00 in0.0 mm 0.00 in0.0 mm 0.00 in0.0 mm
04:00 PM 75.2°F24.0°C 65.2°F18.4°C 71% 9.1 mph NE14.6 kmh NE 16.8 mph27.0 kmh 29.78 in1008.5 mb 0.00 in0.0 mm 0.00 in0.0 mm 0.00 in0.0 mm
03:50 PM 76.6°F24.8°C 67.0°F19.4°C 72% 7.3 mph ENE11.7 kmh ENE 15.2 mph24.5 kmh 29.78 in1008.5 mb 0.00 in0.0 mm 0.00 in0.0 mm 0.00 in0.0 mm
03:40 PM 76.8°F24.9°C 66.3°F19.1°C 70% 7.3 mph ENE11.7 kmh ENE 15.9 mph25.6 kmh 29.79 in1008.8 mb 0.00 in0.0 mm 0.00 in0.0 mm 0.00 in0.0 mm
03:30 PM 77.2°F25.1°C 65.8°F18.8°C 68% 7.4 mph E11.9 kmh E 14.5 mph23.3 kmh 29.78 in1008.5 mb 0.00 in0.0 mm 0.00 in0.0 mm 0.00 in0.0 mm
03:20 PM 78.6°F25.9°C 66.8°F19.3°C 67% 7.0 mph E11.3 kmh E 15.2 mph24.5 kmh 29.78 in1008.5 mb 0.00 in0.0 mm 0.00 in0.0 mm 0.00 in0.0 mm
03:10 PM 77.9°F25.5°C 66.5°F19.2°C 68% 6.8 mph NE10.9 kmh NE 14.5 mph23.3 kmh 29.78 in1008.5 mb 0.00 in0.0 mm 0.00 in0.0 mm 0.00 in0.0 mm
03:00 PM 77.9°F25.5°C 66.5°F19.2°C 68% 6.6 mph E10.6 kmh E 14.5 mph23.3 kmh 29.78 in1008.5 mb 0.00 in0.0 mm 0.00 in0.0 mm 0.00 in0.0 mm
02:50 PM 77.5°F25.3°C 66.2°F19.0°C 68% 7.7 mph ENE12.4 kmh ENE 15.9 mph25.6 kmh 29.78 in1008.5 mb 0.00 in0.0 mm 0.00 in0.0 mm 0.00 in0.0 mm
02:40 PM 79.9°F26.6°C 66.7°F19.3°C 64% 7.3 mph ENE11.7 kmh ENE 14.5 mph23.3 kmh 29.76 in1007.8 mb 0.00 in0.0 mm 0.00 in0.0 mm 0.00 in0.0 mm
02:30 PM 80.1°F26.7°C 66.4°F19.1°C 63% 7.2 mph ENE11.6 kmh ENE 14.5 mph23.3 kmh 29.76 in1007.8 mb 0.00 in0.0 mm 0.00 in0.0 mm 0.00 in0.0 mm
02:20 PM 79.5°F26.4°C 66.3°F19.1°C 64% 7.6 mph ENE12.2 kmh ENE 15.2 mph24.5 kmh 29.75 in1007.5 mb 0.00 in0.0 mm 0.00 in0.0 mm 0.00 in0.0 mm
02:10 PM 80.1°F26.7°C 66.4°F19.1°C 63% 6.2 mph ENE10.0 kmh ENE 12.1 mph19.5 kmh 29.76 in1007.8 mb 0.00 in0.0 mm 0.00 in0.0 mm 0.00 in0.0 mm
02:00 PM 79.0°F26.1°C 66.7°F19.3°C 66% 7.2 mph ENE11.6 kmh ENE 15.2 mph24.5 kmh 29.76 in1007.8 mb 0.00 in0.0 mm 0.00 in0.0 mm 0.00 in0.0 mm
01:50 PM 79.3°F26.3°C 65.7°F18.7°C 63% 7.2 mph ENE11.6 kmh ENE 15.2 mph24.5 kmh 29.77 in1008.1 mb 0.00 in0.0 mm 0.00 in0.0 mm 0.00 in0.0 mm
01:40 PM 80.2°F26.8°C 67.0°F19.4°C 64% 6.0 mph E9.7 kmh E 13.0 mph20.9 kmh 29.77 in1008.1 mb 0.00 in0.0 mm 0.00 in0.0 mm 0.00 in0.0 mm
01:30 PM 81.1°F27.3°C 66.5°F19.2°C 61% 5.3 mph E8.5 kmh E 15.2 mph24.5 kmh 29.77 in1008.1 mb 0.00 in0.0 mm 0.00 in0.0 mm 0.00 in0.0 mm
01:20 PM 81.5°F27.5°C 66.3°F19.1°C 60% 5.4 mph E8.7 kmh E 13.0 mph20.9 kmh 29.76 in1007.8 mb 0.00 in0.0 mm 0.00 in0.0 mm 0.00 in0.0 mm
01:10 PM 81.3°F27.4°C 65.7°F18.7°C 59% 5.0 mph E8.0 kmh E 11.4 mph18.3 kmh 29.76 in1007.8 mb 0.00 in0.0 mm 0.00 in0.0 mm 0.00 in0.0 mm
01:00 PM 81.5°F27.5°C 66.3°F19.1°C 60% 5.2 mph NE8.4 kmh NE 12.1 mph19.5 kmh 29.76 in1007.8 mb 0.00 in0.0 mm 0.00 in0.0 mm 0.00 in0.0 mm
12:50 PM 82.8°F28.2°C 66.0°F18.9°C 57% 3.9 mph E6.3 kmh E 9.2 mph14.8 kmh 29.76 in1007.8 mb 0.00 in0.0 mm 0.00 in0.0 mm 0.00 in0.0 mm
12:40 PM 82.8°F28.2°C 64.5°F18.1°C 54% 4.2 mph SE6.8 kmh SE 10.7 mph17.2 kmh 29.76 in1007.8 mb 0.00 in0.0 mm 0.00 in0.0 mm 0.00 in0.0 mm
12:30 PM 83.8°F28.8°C 65.5°F18.6°C 54% 4.4 mph E7.1 kmh E 9.8 mph15.8 kmh 29.75 in1007.5 mb 0.00 in0.0 mm 0.00 in0.0 mm 0.00 in0.0 mm
12:20 PM 84.7°F29.3°C 65.8°F18.8°C 53% 3.9 mph SE6.3 kmh SE 9.2 mph14.8 kmh 29.75 in1007.5 mb 0.00 in0.0 mm 0.00 in0.0 mm 0.00 in0.0 mm
12:10 PM 85.1°F29.5°C 65.6°F18.7°C 52% 3.9 mph E6.3 kmh E 8.3 mph13.4 kmh 29.75 in1007.5 mb 0.00 in0.0 mm 0.00 in0.0 mm 0.00 in0.0 mm
12:00 PM 86.4°F30.2°C 65.6°F18.7°C 50% 3.0 mph ESE4.8 kmh ESE 8.3 mph13.4 kmh 29.75 in1007.5 mb 0.00 in0.0 mm 0.00 in0.0 mm 0.00 in0.0 mm
11:50 AM 85.5°F29.7°C 64.8°F18.2°C 50% 3.8 mph E6.1 kmh E 7.6 mph12.2 kmh 29.75 in1007.5 mb 0.00 in0.0 mm 0.00 in0.0 mm 0.00 in0.0 mm
11:40 AM 86.2°F30.1°C 63.6°F17.6°C 47% 3.7 mph E6.0 kmh E 9.2 mph14.8 kmh 29.75 in1007.5 mb 0.00 in0.0 mm 0.00 in0.0 mm 0.00 in0.0 mm
11:30 AM 86.5°F30.3°C 62.1°F16.7°C 44% 3.3 mph E5.3 kmh E 8.3 mph13.4 kmh 29.76 in1007.8 mb 0.00 in0.0 mm 0.00 in0.0 mm 0.00 in0.0 mm
11:20 AM 87.4°F30.8°C 62.3°F16.8°C 43% 2.8 mph SE4.5 kmh SE 7.6 mph12.2 kmh 29.76 in1007.8 mb 0.00 in0.0 mm 0.00 in0.0 mm 0.00 in0.0 mm
11:10 AM 86.9°F30.5°C 61.8°F16.6°C 43% 3.5 mph SE5.6 kmh SE 7.6 mph12.2 kmh 29.76 in1007.8 mb 0.00 in0.0 mm 0.00 in0.0 mm 0.00 in0.0 mm
11:00 AM 87.3°F30.7°C 62.1°F16.7°C 43% 3.3 mph SSE5.3 kmh SSE 9.8 mph15.8 kmh 29.77 in1008.1 mb 0.00 in0.0 mm 0.00 in0.0 mm 0.00 in0.0 mm
10:50 AM 89.2°F31.8°C 61.1°F16.2°C 39% 2.5 mph SE4.0 kmh SE 6.0 mph9.7 kmh 29.76 in1007.8 mb 0.00 in0.0 mm 0.00 in0.0 mm 0.00 in0.0 mm
10:40 AM 89.2°F31.8°C 60.4°F15.8°C 38% 1.8 mph E2.9 kmh E 6.0 mph9.7 kmh 29.76 in1007.8 mb 0.00 in0.0 mm 0.00 in0.0 mm 0.00 in0.0 mm
10:30 AM 88.2°F31.2°C 60.9°F16.1°C 40% 1.7 mph ENE2.7 kmh ENE 6.0 mph9.7 kmh 29.77 in1008.1 mb 0.00 in0.0 mm 0.00 in0.0 mm 0.00 in0.0 mm
10:20 AM 88.2°F31.2°C 60.1°F15.6°C 39% 2.1 mph E3.4 kmh E 5.4 mph8.7 kmh 29.78 in1008.5 mb 0.00 in0.0 mm 0.00 in0.0 mm 0.00 in0.0 mm
10:10 AM 88.2°F31.2°C 58.7°F14.8°C 37% 1.7 mph SE2.7 kmh SE 5.4 mph8.7 kmh 29.78 in1008.5 mb 0.00 in0.0 mm 0.00 in0.0 mm 0.00 in0.0 mm
10:00 AM 87.8°F31.0°C 58.3°F14.6°C 37% 2.0 mph E3.2 kmh E 6.0 mph9.7 kmh 29.78 in1008.5 mb 0.00 in0.0 mm 0.00 in0.0 mm 0.00 in0.0 mm
09:50 AM 87.4°F30.8°C 58.0°F14.4°C 37% 2.0 mph SSE3.2 kmh SSE 5.4 mph8.7 kmh 29.78 in1008.5 mb 0.00 in0.0 mm 0.00 in0.0 mm 0.00 in0.0 mm
09:40 AM 87.8°F31.0°C 59.8°F15.4°C 39% 2.3 mph ESE3.7 kmh ESE 6.0 mph9.7 kmh 29.78 in1008.5 mb 0.00 in0.0 mm 0.00 in0.0 mm 0.00 in0.0 mm
09:30 AM 87.3°F30.7°C 60.0°F15.6°C 40% 1.1 mph ESE1.8 kmh ESE 4.5 mph7.2 kmh 29.78 in1008.5 mb 0.00 in0.0 mm 0.00 in0.0 mm 0.00 in0.0 mm
09:21 AM 85.8°F29.9°C 61.4°F16.3°C 44% 0.8 mph NW1.3 kmh NW 3.1 mph5.0 kmh 29.78 in1008.5 mb 0.00 in0.0 mm 0.00 in0.0 mm 0.00 in0.0 mm
09:10 AM 84.9°F29.4°C 61.9°F16.6°C 46% 1.1 mph NE1.8 kmh NE 4.5 mph7.2 kmh 29.77 in1008.1 mb 0.00 in0.0 mm 0.00 in0.0 mm 0.00 in0.0 mm
09:00 AM 82.6°F28.1°C 62.1°F16.7°C 50% 1.2 mph ESE1.9 kmh ESE 3.8 mph6.1 kmh 29.78 in1008.5 mb 0.00 in0.0 mm 0.00 in0.0 mm 0.00 in0.0 mm
08:50 AM 80.8°F27.1°C 61.0°F16.1°C 51% 1.5 mph E2.4 kmh E 4.5 mph7.2 kmh 29.78 in1008.5 mb 0.00 in0.0 mm 0.00 in0.0 mm 0.00 in0.0 mm
08:40 AM 80.2°F26.8°C 61.1°F16.2°C 52% 1.9 mph SSE3.1 kmh SSE 6.0 mph9.7 kmh 29.79 in1008.8 mb 0.00 in0.0 mm 0.00 in0.0 mm 0.00 in0.0 mm
08:30 AM 79.3°F26.3°C 60.2°F15.7°C 52% 3.0 mph SSE4.8 kmh SSE 9.2 mph14.8 kmh 29.79 in1008.8 mb 0.00 in0.0 mm 0.00 in0.0 mm 0.00 in0.0 mm
08:20 AM 79.2°F26.2°C 58.4°F14.7°C 49% 4.2 mph SSE6.8 kmh SSE 9.8 mph15.8 kmh 29.80 in1009.1 mb 0.00 in0.0 mm 0.00 in0.0 mm 0.00 in0.0 mm
08:10 AM 80.2°F26.8°C 55.8°F13.2°C 43% 3.9 mph S6.3 kmh S 7.6 mph12.2 kmh 29.79 in1008.8 mb 0.00 in0.0 mm 0.00 in0.0 mm 0.00 in0.0 mm
08:00 AM 80.6°F27.0°C 54.8°F12.7°C 41% 3.1 mph S5.0 kmh S 6.9 mph11.1 kmh 29.78 in1008.5 mb 0.00 in0.0 mm 0.00 in0.0 mm 0.00 in0.0 mm
07:50 AM 80.4°F26.9°C 53.9°F12.2°C 40% 3.5 mph S5.6 kmh S 7.6 mph12.2 kmh 29.78 in1008.5 mb 0.00 in0.0 mm 0.00 in0.0 mm 0.00 in0.0 mm
07:40 AM 80.8°F27.1°C 53.6°F12.0°C 39% 3.5 mph S5.6 kmh S 6.9 mph11.1 kmh 29.77 in1008.1 mb 0.00 in0.0 mm 0.00 in0.0 mm 0.00 in0.0 mm
07:30 AM 82.0°F27.8°C 49.3°F9.6°C 32% 1.9 mph S3.1 kmh S 6.9 mph11.1 kmh 29.77 in1008.1 mb 0.00 in0.0 mm 0.00 in0.0 mm 0.00 in0.0 mm
07:20 AM 80.6°F27.0°C 46.3°F7.9°C 30% 1.8 mph S2.9 kmh S 3.8 mph6.1 kmh 29.76 in1007.8 mb 0.00 in0.0 mm 0.00 in0.0 mm 0.00 in0.0 mm
07:10 AM 80.2°F26.8°C 46.0°F7.8°C 30% 1.1 mph S1.8 kmh S 3.8 mph6.1 kmh 29.76 in1007.8 mb 0.00 in0.0 mm 0.00 in0.0 mm 0.00 in0.0 mm
07:00 AM 79.0°F26.1°C 45.8°F7.7°C 31% 0.9 mph NW1.4 kmh NW 4.5 mph7.2 kmh 29.75 in1007.5 mb 0.00 in0.0 mm 0.00 in0.0 mm 0.00 in0.0 mm
06:50 AM 76.6°F24.8°C 46.2°F7.9°C 34% 2.5 mph NNW4.0 kmh NNW 4.5 mph7.2 kmh 29.74 in1007.1 mb 0.00 in0.0 mm 0.00 in0.0 mm 0.00 in0.0 mm
06:40 AM 77.0°F25.0°C 47.3°F8.5°C 35% 0.7 mph N1.1 kmh N 3.1 mph5.0 kmh 29.74 in1007.1 mb 0.00 in0.0 mm 0.00 in0.0 mm 0.00 in0.0 mm
06:30 AM 73.2°F22.9°C 48.1°F8.9°C 41% Calm Calm -- 29.74 in1007.1 mb 0.00 in0.0 mm 0.00 in0.0 mm 0.00 in0.0 mm
06:20 AM 72.1°F22.3°C 49.0°F9.4°C 44% Calm Calm -- 29.74 in1007.1 mb 0.00 in0.0 mm 0.00 in0.0 mm 0.00 in0.0 mm
06:10 AM 68.9°F20.5°C 49.5°F9.7°C 50% 0.2 mph NW0.3 kmh NW 2.2 mph3.5 kmh 29.74 in1007.1 mb 0.00 in0.0 mm 0.00 in0.0 mm 0.00 in0.0 mm
06:00 AM 66.0°F18.9°C 48.9°F9.4°C 54% 1.5 mph SW2.4 kmh SW 4.5 mph7.2 kmh 29.73 in1006.8 mb 0.00 in0.0 mm 0.00 in0.0 mm 0.00 in0.0 mm
05:50 AM 62.6°F17.0°C 45.2°F7.3°C 53% 1.8 mph S2.9 kmh S 9.2 mph14.8 kmh 29.73 in1006.8 mb 0.00 in0.0 mm 0.00 in0.0 mm 0.00 in0.0 mm
05:40 AM 62.8°F17.1°C 46.4°F8.0°C 55% 0.8 mph WNW1.3 kmh WNW 3.1 mph5.0 kmh 29.72 in1006.4 mb 0.00 in0.0 mm 0.00 in0.0 mm 0.00 in0.0 mm
05:30 AM 61.9°F16.6°C 47.4°F8.6°C 59% 1.2 mph W1.9 kmh W 6.0 mph9.7 kmh 29.72 in1006.4 mb 0.00 in0.0 mm 0.00 in0.0 mm 0.00 in0.0 mm
05:20 AM 59.7°F15.4°C 48.8°F9.3°C 67% 0.1 mph NW0.2 kmh NW 2.2 mph3.5 kmh 29.71 in1006.1 mb 0.00 in0.0 mm 0.00 in0.0 mm 0.00 in0.0 mm
05:10 AM 59.9°F15.5°C 50.5°F10.3°C 71% 0.7 mph SSE1.1 kmh SSE 3.8 mph6.1 kmh 29.71 in1006.1 mb 0.00 in0.0 mm 0.00 in0.0 mm 0.00 in0.0 mm
05:00 AM 58.8°F14.9°C 50.2°F10.1°C 73% 0.1 mph SE0.2 kmh SE 3.1 mph5.0 kmh 29.71 in1006.1 mb 0.00 in0.0 mm 0.00 in0.0 mm 0.00 in0.0 mm
04:50 AM 58.6°F14.8°C 49.3°F9.6°C 71% Calm Calm -- 29.71 in1006.1 mb 0.00 in0.0 mm 0.00 in0.0 mm 0.00 in0.0 mm
04:40 AM 59.2°F15.1°C 49.4°F9.7°C 70% Calm Calm -- 29.72 in1006.4 mb 0.00 in0.0 mm 0.00 in0.0 mm 0.00 in0.0 mm
04:30 AM 59.4°F15.2°C 49.6°F9.8°C 70% Calm Calm -- 29.72 in1006.4 mb 0.00 in0.0 mm 0.00 in0.0 mm 0.00 in0.0 mm
04:20 AM 59.4°F15.2°C 48.8°F9.3°C 68% Calm Calm 1.6 mph2.6 kmh 29.72 in1006.4 mb 0.00 in0.0 mm 0.00 in0.0 mm 0.00 in0.0 mm
04:10 AM 59.7°F15.4°C 48.4°F9.1°C 66% Calm Calm 0.7 mph1.1 kmh 29.71 in1006.1 mb 0.00 in0.0 mm 0.00 in0.0 mm 0.00 in0.0 mm
04:00 AM 60.8°F16.0°C 49.0°F9.4°C 65% Calm Calm -- 29.72 in1006.4 mb 0.00 in0.0 mm 0.00 in0.0 mm 0.00 in0.0 mm
03:50 AM 61.0°F16.1°C 48.3°F9.1°C 63% Calm Calm 1.6 mph2.6 kmh 29.71 in1006.1 mb 0.00 in0.0 mm 0.00 in0.0 mm 0.00 in0.0 mm
03:40 AM 61.9°F16.6°C 49.2°F9.6°C 63% 0.4 mph S0.6 kmh S 2.2 mph3.5 kmh 29.71 in1006.1 mb 0.00 in0.0 mm 0.00 in0.0 mm 0.00 in0.0 mm
03:30 AM 61.2°F16.2°C 48.9°F9.4°C 64% 0.1 mph SE0.2 kmh SE 1.6 mph2.6 kmh 29.71 in1006.1 mb 0.00 in0.0 mm 0.00 in0.0 mm 0.00 in0.0 mm
03:20 AM 60.6°F15.9°C 49.6°F9.8°C 67% Calm Calm -- 29.71 in1006.1 mb 0.00 in0.0 mm 0.00 in0.0 mm 0.00 in0.0 mm
03:10 AM 61.2°F16.2°C 49.7°F9.8°C 66% Calm Calm -- 29.71 in1006.1 mb 0.00 in0.0 mm 0.00 in0.0 mm 0.00 in0.0 mm
03:00 AM 61.5°F16.4°C 48.8°F9.3°C 63% 0.1 mph N0.2 kmh N 2.2 mph3.5 kmh 29.71 in1006.1 mb 0.00 in0.0 mm 0.00 in0.0 mm 0.00 in0.0 mm
02:50 AM 62.1°F16.7°C 49.3°F9.6°C 63% 0.1 mph NW0.2 kmh NW 1.6 mph2.6 kmh 29.72 in1006.4 mb 0.00 in0.0 mm 0.00 in0.0 mm 0.00 in0.0 mm
02:40 AM 62.2°F16.8°C 48.6°F9.2°C 61% Calm Calm -- 29.72 in1006.4 mb 0.00 in0.0 mm 0.00 in0.0 mm 0.00 in0.0 mm
02:30 AM 63.1°F17.3°C 48.1°F8.9°C 58% Calm Calm -- 29.73 in1006.8 mb 0.00 in0.0 mm 0.00 in0.0 mm 0.00 in0.0 mm
02:20 AM 63.3°F17.4°C 47.4°F8.6°C 56% Calm Calm -- 29.73 in1006.8 mb 0.00 in0.0 mm 0.00 in0.0 mm 0.00 in0.0 mm
02:10 AM 64.6°F18.1°C 47.6°F8.7°C 54% Calm Calm -- 29.73 in1006.8 mb 0.00 in0.0 mm 0.00 in0.0 mm 0.00 in0.0 mm
02:00 AM 65.7°F18.7°C 47.6°F8.7°C 52% 0.1 mph SW0.2 kmh SW 1.6 mph2.6 kmh 29.73 in1006.8 mb 0.00 in0.0 mm 0.00 in0.0 mm 0.00 in0.0 mm
01:50 AM 64.9°F18.3°C 47.4°F8.6°C 53% 0.3 mph NW0.5 kmh NW 3.1 mph5.0 kmh 29.73 in1006.8 mb 0.00 in0.0 mm 0.00 in0.0 mm 0.00 in0.0 mm
01:40 AM 65.7°F18.7°C 48.1°F8.9°C 53% Calm Calm -- 29.74 in1007.1 mb 0.00 in0.0 mm 0.00 in0.0 mm 0.00 in0.0 mm
01:30 AM 67.3°F19.6°C 48.6°F9.2°C 51% Calm Calm -- 29.75 in1007.5 mb 0.00 in0.0 mm 0.00 in0.0 mm 0.00 in0.0 mm
01:20 AM 67.3°F19.6°C 48.0°F8.9°C 50% 0.1 mph WNW0.2 kmh WNW 2.2 mph3.5 kmh 29.75 in1007.5 mb 0.00 in0.0 mm 0.00 in0.0 mm 0.00 in0.0 mm
01:10 AM 66.9°F19.4°C 48.2°F9.0°C 51% 0.1 mph S0.2 kmh S 2.2 mph3.5 kmh 29.75 in1007.5 mb 0.00 in0.0 mm 0.00 in0.0 mm 0.00 in0.0 mm
01:00 AM 65.7°F18.7°C 48.6°F9.2°C 54% 0.4 mph NW0.6 kmh NW 3.8 mph6.1 kmh 29.75 in1007.5 mb 0.00 in0.0 mm 0.00 in0.0 mm 0.00 in0.0 mm
12:50 AM 65.3°F18.5°C 50.6°F10.3°C 59% Calm Calm -- 29.75 in1007.5 mb 0.00 in0.0 mm 0.00 in0.0 mm 0.00 in0.0 mm
12:40 AM 64.9°F18.3°C 51.2°F10.7°C 61% 0.4 mph NW0.6 kmh NW 2.2 mph3.5 kmh 29.75 in1007.5 mb 0.00 in0.0 mm 0.00 in0.0 mm 0.00 in0.0 mm
12:30 AM 66.0°F18.9°C 53.1°F11.7°C 63% 0.1 mph SSE0.2 kmh SSE 1.6 mph2.6 kmh 29.75 in1007.5 mb 0.00 in0.0 mm 0.00 in0.0 mm 0.00 in0.0 mm
12:20 AM 65.1°F18.4°C 52.2°F11.2°C 63% Calm Calm 0.7 mph1.1 kmh 29.75 in1007.5 mb 0.00 in0.0 mm 0.00 in0.0 mm 0.00 in0.0 mm
12:10 AM 63.7°F17.6°C 53.7°F12.1°C 70% Calm Calm -- 29.75 in1007.5 mb 0.00 in0.0 mm 0.00 in0.0 mm 0.00 in0.0 mm
12:00 AM 63.9°F17.7°C 54.3°F12.4°C 71% Calm Calm -- 29.75 in1007.5 mb 0.00 in0.0 mm 0.00 in0.0 mm 0.00 in0.0 mm